Central Square, New York
Current Conditions -  °F | °C
As of 7:54 PM on Friday 24 Oct 2014 (Local Time) from KSYR Reporting Station
Broken Clouds Broken Clouds  
Wind Chill: 45°   Ceiling: 26000
Heat Index: 48°   Visibility: 10mi
Dew Point: 36°   Wind: 7mph
Humidity: 63%   Direction: 260°W
Pressure: 29.92"   Gusts: NA
Location:  43.29°N, 76.15°W
Report Text: KSYR 242354Z 26006KT 10SM BKN260 09/02 A2992 RMK AO2 SLP129 BKN V SCT T00890022 10167 20089 53005
Loading
Personal Weather Stations






























Interactive Weather Map
Tropical Storm Tracking
New forecast layout! Learn more

10-Day Weather Forecast

Advertisements
Track Severe Weather on mobile